This is the latest recevied weather packets stored in our database for station/object DL3GCR-10. If no packets are shown the sender has not sent any weather packets the latest 10 day(s).
| Time | Temp. | Humidity | Pressure | Rain* | Wind** | Luminosity | Snow |
|---|---|---|---|---|---|---|---|
| 1777250215 | 9.44° C | 57% | 1023.5 hPa | - | - | - | - |
| 1777249315 | 9.44° C | 55% | 1023.4 hPa | - | - | - | - |
| 1777248415 | 9.44° C | 56% | 1023.5 hPa | - | - | - | - |
| 1777247515 | 10° C | 55% | 1023.5 hPa | - | - | - | - |
| 1777246614 | 10.56° C | 53% | 1023.5 hPa | - | - | - | - |
| 1777245714 | 10.56° C | 52% | 1023.7 hPa | - | - | - | - |
| 1777244813 | 10.56° C | 52% | 1023.6 hPa | - | - | - | - |
| 1777243913 | 11.11° C | 52% | 1023.5 hPa | - | - | - | - |
| 1777243013 | 11.67° C | 49% | 1023.5 hPa | - | - | - | - |
| 1777242127 | 12.22° C | 46% | 1023.5 hPa | - | - | - | - |
| 1777241227 | 12.22° C | 46% | 1023.4 hPa | - | - | - | - |
| 1777240327 | 11.67° C | 50% | 1023.3 hPa | - | - | - | - |
| 1777239427 | 12.22° C | 50% | 1023.4 hPa | - | - | - | - |
| 1777238527 | 12.78° C | 47% | 1023.5 hPa | - | - | - | - |
| 1777237627 | 12.78° C | 46% | 1023.5 hPa | - | - | - | - |
| 1777236726 | 12.78° C | 46% | 1023.6 hPa | - | - | - | - |
| 1777235826 | 13.33° C | 47% | 1023.5 hPa | - | - | - | - |
| 1777234019 | 14.44° C | 43% | 1023.4 hPa | - | - | - | - |
| 1777233119 | 15° C | 43% | 1023.3 hPa | - | - | - | - |
| 1777232219 | 15.56° C | 40% | 1023.2 hPa | - | - | - | - |
| 1777231318 | 16.11° C | 38% | 1022.9 hPa | - | - | - | - |
| 1777230418 | 16.67° C | 34% | 1022.6 hPa | - | - | - | - |
| 1777229518 | 17.22° C | 31% | 1022.5 hPa | - | - | - | - |
| 1777228618 | 17.78° C | 31% | 1022.4 hPa | - | - | - | - |
| 1777227718 | 18.33° C | 30% | 1022.2 hPa | - | - | - | - |
* Rain since midnight (hover to see other rain measurements)
** Current wind speed in m/s (hover to see current wind gust speed)